KAXN/AXN METAR and TAF weather

Enter ICAO airport designator
Station Type Date Time Source
KAXN METAR 2019/05/21 20:53 UTC NOAA

KAXN 212053Z AUTO 10020G31KT 10SM CLR 18/01 A2991 RMK AO2 PK WND 10035/2004 SLP131 T01830011 58030


Station Type Date Time Source
KAXN Decoded METAR 2019/05/21 20:53 UTC NOAA

CHANDLER FIELD, MN, United States (KAXN) 45-52N 095-24W 433M
May 21, 2019 - 04:53 PM EDT / 2019.05.21 2053 UTC
Wind: from the E (100 degrees) at 23 MPH (20 KT) gusting to 36 MPH (31 KT):0
Visibility: 10 mile(s):0
Sky conditions: clear
Temperature: 64.9 F (18.3 C)
Dew Point: 34.0 F (1.1 C)
Relative Humidity: 31%
Pressure (altimeter): 29.91 in. Hg (1012 hPa)
Pressure tendency: 0.09 inches (3.0 hPa) lower than three hours ago
ob: KAXN 212053Z AUTO 10020G31KT 10SM CLR 18/01 A2991 RMK AO2 PK WND 10035/2004 SLP131 T01830011 58030
cycle: 21

Station Type Date Time Source
KAXN TAF 2019/05/21 18:22 UTC NOAA

TAF KAXN 211720Z 2118/2218 10018G30KT P6SM OVC120
FM212300 09023G36KT P6SM OVC100
FM220300 09025G39KT 6SM -RA BR OVC040
FM220700 08022G33KT 4SM RA BR OVC013
FM221000 09020G27KT 4SM -RA BR OVC007

Example: see airport list